createdAt,value
2023-04-14T00:04:01.002Z,7.10
2023-04-14T00:12:24.020Z,7.14
2023-04-14T00:20:47.676Z,7.11
2023-04-14T00:29:10.812Z,7.12
2023-04-14T00:37:33.693Z,7.16
2023-04-14T00:45:56.861Z,7.19
2023-04-14T00:54:20.169Z,7.16
2023-04-14T01:02:43.333Z,7.13
2023-04-14T01:11:51.638Z,7.08
2023-04-14T01:20:23.053Z,7.03
2023-04-14T01:29:24.077Z,6.97
2023-04-14T01:37:58.028Z,6.89
2023-04-14T01:46:21.923Z,6.77
2023-04-14T01:54:49.689Z,6.66
2023-04-14T02:03:13.778Z,6.60
2023-04-14T02:11:38.541Z,6.53
2023-04-14T02:20:02.016Z,6.45
2023-04-14T02:28:32.206Z,6.39
2023-04-14T02:36:57.892Z,6.31
2023-04-14T02:45:26.798Z,6.19
2023-04-14T02:53:51.019Z,6.01
2023-04-14T03:02:25.368Z,5.89
2023-04-14T03:10:57.392Z,5.80
2023-04-14T03:19:24.192Z,5.67
2023-04-14T03:27:48.472Z,5.56
2023-04-14T03:36:12.930Z,5.54
2023-04-14T03:44:39.020Z,5.53
2023-04-14T03:53:02.093Z,5.56
2023-04-14T04:01:27.050Z,5.66
2023-04-14T04:09:52.548Z,5.77
2023-04-14T04:18:18.319Z,5.94
2023-04-14T04:26:41.960Z,6.04
2023-04-14T04:35:07.376Z,6.14
2023-04-14T04:43:30.765Z,6.21
2023-04-14T04:51:54.523Z,6.29
2023-04-14T05:00:18.322Z,6.40
2023-04-14T05:08:41.244Z,6.45
2023-04-14T05:17:06.279Z,6.52
2023-04-14T05:25:29.179Z,6.68
2023-04-14T05:33:52.089Z,6.82
2023-04-14T05:42:14.941Z,6.94
2023-04-14T05:50:38.464Z,7.10
2023-04-14T05:59:01.810Z,7.19
2023-04-14T06:07:24.701Z,7.45
2023-04-14T06:15:50.129Z,7.78
2023-04-14T06:24:13.090Z,8.26
2023-04-14T06:32:36.239Z,9.14
2023-04-14T06:40:59.275Z,9.89
2023-04-14T06:49:24.035Z,10.23
2023-04-14T06:57:47.001Z,10.59
2023-04-14T07:06:13.960Z,11.03
2023-04-14T07:14:38.109Z,11.32
2023-04-14T07:23:01.132Z,11.55
2023-04-14T07:31:24.114Z,11.82
2023-04-14T07:39:46.959Z,12.10
2023-04-14T07:48:10.676Z,12.52
2023-04-14T07:56:33.594Z,12.65
2023-04-14T08:04:56.565Z,12.74
2023-04-14T08:13:19.520Z,12.83
2023-04-14T08:21:42.381Z,12.97
2023-04-14T08:30:09.483Z,13.06
2023-04-14T08:38:33.296Z,13.32
2023-04-14T08:46:57.531Z,13.62
2023-04-14T08:55:21.244Z,13.69
2023-04-14T09:03:45.347Z,13.72
2023-04-14T09:12:09.542Z,13.67
2023-04-14T09:20:37.651Z,13.58
2023-04-14T09:29:03.543Z,13.62
2023-04-14T09:37:26.804Z,13.76
2023-04-14T09:45:49.737Z,13.79
2023-04-14T09:54:22.491Z,13.68
2023-04-14T10:02:56.742Z,13.84
2023-04-14T10:11:29.817Z,13.88
2023-04-14T10:19:54.306Z,14.03
2023-04-14T10:28:17.796Z,13.94
2023-04-14T10:36:41.529Z,14.21
2023-04-14T10:45:09.059Z,14.48
2023-04-14T10:53:45.758Z,14.58
2023-04-14T11:02:30.034Z,14.39
2023-04-14T11:11:04.305Z,14.45
2023-04-14T11:19:27.728Z,14.96
2023-04-14T11:27:50.561Z,14.71
2023-04-14T11:36:13.618Z,14.58
2023-04-14T11:44:36.913Z,14.70
2023-04-14T11:53:00.950Z,14.82
2023-04-14T12:01:24.392Z,14.99
2023-04-14T12:09:49.547Z,15.12
2023-04-14T12:18:15.905Z,15.27
2023-04-14T12:26:39.046Z,15.07
2023-04-14T12:35:19.099Z,14.86
2023-04-14T12:43:41.952Z,15.12
2023-04-14T12:52:06.094Z,15.21
2023-04-14T13:00:29.054Z,15.42
2023-04-14T13:08:53.944Z,15.41
2023-04-14T13:17:16.848Z,15.38
2023-04-14T13:25:41.000Z,15.52
2023-04-14T13:34:04.650Z,15.80
2023-04-14T13:42:44.033Z,15.74
2023-04-14T13:51:06.942Z,15.32
2023-04-14T13:59:29.979Z,15.41
2023-04-14T14:07:53.261Z,15.48
2023-04-14T14:16:33.106Z,15.41
2023-04-14T14:25:14.895Z,15.09
2023-04-14T14:33:41.231Z,15.01
2023-04-14T14:42:04.335Z,14.92
2023-04-14T14:50:27.461Z,14.64
2023-04-14T14:58:50.719Z,14.58
2023-04-14T15:07:13.648Z,14.54
2023-04-14T15:15:36.955Z,14.16
2023-04-14T15:24:00.262Z,13.81
2023-04-14T15:32:26.751Z,13.64
2023-04-14T15:40:49.962Z,13.49
2023-04-14T15:49:12.764Z,13.32
2023-04-14T15:57:36.884Z,13.16
2023-04-14T16:06:04.203Z,12.93
2023-04-14T16:14:31.563Z,12.77
2023-04-14T16:22:54.478Z,12.59
2023-04-14T16:31:17.991Z,12.45
2023-04-14T16:39:41.434Z,12.29
2023-04-14T16:48:04.550Z,12.13
2023-04-14T16:56:27.608Z,11.92
2023-04-14T17:04:50.728Z,11.69
2023-04-14T17:13:14.137Z,11.47
2023-04-14T17:21:38.792Z,11.24
2023-04-14T17:30:03.406Z,11.04
2023-04-14T17:38:26.551Z,10.86
2023-04-14T17:46:49.897Z,10.68
2023-04-14T17:55:14.055Z,10.51
2023-04-14T18:03:36.939Z,10.37
2023-04-14T18:11:59.916Z,10.27
2023-04-14T18:20:25.426Z,10.18
2023-04-14T18:28:48.371Z,10.11
2023-04-14T18:37:15.770Z,10.06
2023-04-14T18:45:38.977Z,10.05
2023-04-14T18:54:02.338Z,10.06
2023-04-14T19:02:26.147Z,10.05
2023-04-14T19:10:49.532Z,9.98
2023-04-14T19:19:12.592Z,9.87
2023-04-14T19:27:36.304Z,9.77
2023-04-14T19:35:59.226Z,9.69
2023-04-14T19:44:22.146Z,9.66
2023-04-14T19:52:46.738Z,9.67
2023-04-14T20:01:09.767Z,9.63
2023-04-14T20:09:33.728Z,9.58
2023-04-14T20:17:57.195Z,9.54
2023-04-14T20:26:20.734Z,9.52
2023-04-14T20:34:43.572Z,9.52
2023-04-14T20:43:07.585Z,9.51
2023-04-14T20:51:32.381Z,9.48
2023-04-14T20:59:55.792Z,9.48
2023-04-14T21:08:19.475Z,9.47
2023-04-14T21:16:42.409Z,9.44
2023-04-14T21:25:05.879Z,9.41
2023-04-14T21:33:28.881Z,9.39
2023-04-14T21:41:52.497Z,9.36
2023-04-14T21:50:15.458Z,9.35
2023-04-14T21:58:39.621Z,9.31
2023-04-14T22:07:02.784Z,9.31
2023-04-14T22:15:25.998Z,9.30
2023-04-14T22:23:49.004Z,9.30
2023-04-14T22:32:12.141Z,9.29
2023-04-14T22:40:35.025Z,9.27
2023-04-14T22:48:57.959Z,9.24
2023-04-14T22:57:20.773Z,9.22
2023-04-14T23:05:44.778Z,9.22
2023-04-14T23:14:07.814Z,9.19
2023-04-14T23:22:30.654Z,9.17
2023-04-14T23:30:53.494Z,9.14
2023-04-14T23:39:16.419Z,9.12
2023-04-14T23:47:39.411Z,9.06
2023-04-14T23:56:04.170Z,8.91
